BLY503 EGPH-EGGP
Flight info
| Callsign | BLY503 |
|---|---|
| Flight time | 0h 48m |
| Altitude | 25000 |
| Route | GOSAM P600 FENIK L612 LAKEY |
| Aircraft | A319/M-SDE3FGHIRWY/LB1 |
Departure
| Time | 2026-04-21 22:24 |
|---|---|
| Airport | Edinburgh Airport (EGPH) |
Arrival
| Time | 2026-04-21 23:12 |
|---|---|
| Airport | Liverpool John Lennon Airport (EGGP) |
| Time | Latitude | Longitude | Altitude | Speed | Heading |
|---|---|---|---|---|---|
| 2026-04-21 21:54 | 55.94905 | -3.35939 | 107 ft | 0 kts | 253° |
| 2026-04-21 22:14 | 55.94907 | -3.35927 | 107 ft | 3 kts | 262° |
| 2026-04-21 22:14 | 55.94908 | -3.35906 | 107 ft | 3 kts | 329° |
| 2026-04-21 22:14 | 55.94897 | -3.35905 | 104 ft | 3 kts | 22° |
| 2026-04-21 22:17 | 55.94918 | -3.35889 | 106 ft | 8 kts | 22° |
| 2026-04-21 22:17 | 55.94978 | -3.35854 | 107 ft | 10 kts | 18° |
| 2026-04-21 22:17 | 55.95052 | -3.35855 | 106 ft | 12 kts | 314° |
| 2026-04-21 22:18 | 55.95093 | -3.35996 | 106 ft | 14 kts | 291° |
| 2026-04-21 22:18 | 55.95127 | -3.36175 | 104 ft | 16 kts | 288° |
| 2026-04-21 22:18 | 55.95106 | -3.36364 | 106 ft | 16 kts | 238° |
| 2026-04-21 22:18 | 55.95051 | -3.36528 | 106 ft | 15 kts | 239° |
| 2026-04-21 22:19 | 55.94992 | -3.36705 | 106 ft | 17 kts | 239° |
| 2026-04-21 22:19 | 55.94927 | -3.36898 | 104 ft | 20 kts | 238° |
| 2026-04-21 22:19 | 55.94853 | -3.37110 | 105 ft | 20 kts | 239° |
| 2026-04-21 22:19 | 55.94779 | -3.37330 | 107 ft | 20 kts | 239° |
| 2026-04-21 22:20 | 55.94710 | -3.37534 | 111 ft | 19 kts | 239° |
| 2026-04-21 22:20 | 55.94645 | -3.37726 | 112 ft | 18 kts | 239° |
| 2026-04-21 22:20 | 55.94578 | -3.37925 | 113 ft | 20 kts | 238° |
| 2026-04-21 22:20 | 55.94504 | -3.38141 | 110 ft | 22 kts | 239° |
| 2026-04-21 22:21 | 55.94428 | -3.38364 | 113 ft | 20 kts | 238° |
| 2026-04-21 22:21 | 55.94357 | -3.38571 | 114 ft | 17 kts | 239° |
| 2026-04-21 22:21 | 55.94300 | -3.38740 | 117 ft | 16 kts | 239° |
| 2026-04-21 22:21 | 55.94295 | -3.38873 | 118 ft | 11 kts | 321° |
| 2026-04-21 22:22 | 55.94369 | -3.38950 | 118 ft | 10 kts | 329° |
| 2026-04-21 22:22 | 55.94416 | -3.38966 | 117 ft | 7 kts | 34° |
| 2026-04-21 22:22 | 55.94427 | -3.38937 | 118 ft | 0 kts | 60° |
| 2026-04-21 22:23 | 55.94433 | -3.38918 | 119 ft | 8 kts | 60° |
| 2026-04-21 22:23 | 55.94609 | -3.38394 | 113 ft | 92 kts | 58° |
| 2026-04-21 22:24 | 55.95053 | -3.37077 | 232 ft | 144 kts | 59° |
| 2026-04-21 22:24 | 55.95565 | -3.35553 | 961 ft | 143 kts | 59° |
| 2026-04-21 22:24 | 55.96128 | -3.34107 | 1825 ft | 142 kts | 49° |
| 2026-04-21 22:24 | 55.96899 | -3.32844 | 2430 ft | 162 kts | 45° |
| 2026-04-21 22:25 | 55.97799 | -3.31390 | 2932 ft | 187 kts | 45° |
| 2026-04-21 22:25 | 55.98825 | -3.29733 | 3532 ft | 211 kts | 45° |
| 2026-04-21 22:25 | 56.00113 | -3.28178 | 4129 ft | 242 kts | 21° |
| 2026-04-21 22:25 | 56.01857 | -3.28244 | 4984 ft | 267 kts | 344° |
| 2026-04-21 22:26 | 56.03405 | -3.30216 | 5741 ft | 285 kts | 311° |
| 2026-04-21 22:26 | 56.04202 | -3.33454 | 5958 ft | 289 kts | 277° |
| 2026-04-21 22:26 | 56.03986 | -3.36990 | 6011 ft | 288 kts | 251° |
| 2026-04-21 22:26 | 56.03262 | -3.40312 | 6015 ft | 287 kts | 243° |
| 2026-04-21 22:27 | 56.02432 | -3.43564 | 6011 ft | 287 kts | 243° |
| 2026-04-21 22:27 | 56.01597 | -3.46805 | 6010 ft | 287 kts | 243° |
| 2026-04-21 22:27 | 56.00798 | -3.50078 | 6010 ft | 288 kts | 248° |
| 2026-04-21 22:27 | 56.00196 | -3.53517 | 6143 ft | 293 kts | 254° |
| 2026-04-21 22:28 | 55.99715 | -3.57051 | 7269 ft | 293 kts | 256° |
| 2026-04-21 22:28 | 55.99262 | -3.60621 | 8318 ft | 297 kts | 256° |
| 2026-04-21 22:28 | 55.98793 | -3.64278 | 9361 ft | 300 kts | 255° |
| 2026-04-21 22:28 | 55.98305 | -3.67933 | 10374 ft | 304 kts | 255° |
| 2026-04-21 22:29 | 55.97785 | -3.71687 | 10995 ft | 322 kts | 254° |
| 2026-04-21 22:29 | 55.97213 | -3.75707 | 11385 ft | 345 kts | 254° |
| 2026-04-21 22:29 | 55.96606 | -3.79921 | 12127 ft | 353 kts | 254° |
| 2026-04-21 22:29 | 55.95988 | -3.84188 | 13009 ft | 358 kts | 254° |
| 2026-04-21 22:30 | 55.95357 | -3.88508 | 13896 ft | 361 kts | 254° |
| 2026-04-21 22:30 | 55.94717 | -3.92870 | 14737 ft | 365 kts | 253° |
| 2026-04-21 22:30 | 55.94041 | -3.97253 | 15491 ft | 368 kts | 249° |
| 2026-04-21 22:30 | 55.92910 | -4.01348 | 16227 ft | 370 kts | 233° |
| 2026-04-21 22:31 | 55.91226 | -4.04787 | 16981 ft | 369 kts | 218° |
| 2026-04-21 22:31 | 55.89146 | -4.07488 | 17765 ft | 370 kts | 211° |
| 2026-04-21 22:31 | 55.87008 | -4.10087 | 18535 ft | 374 kts | 211° |
| 2026-04-21 22:31 | 55.84853 | -4.12715 | 19230 ft | 377 kts | 212° |
| 2026-04-21 22:32 | 55.82678 | -4.15371 | 19884 ft | 381 kts | 212° |
| 2026-04-21 22:32 | 55.80485 | -4.18055 | 20545 ft | 385 kts | 212° |
| 2026-04-21 22:32 | 55.78268 | -4.20763 | 21180 ft | 388 kts | 212° |
| 2026-04-21 22:32 | 55.75899 | -4.23046 | 21818 ft | 389 kts | 200° |
| 2026-04-21 22:33 | 55.73310 | -4.24454 | 22462 ft | 390 kts | 188° |
| 2026-04-21 22:33 | 55.70613 | -4.24892 | 23088 ft | 390 kts | 177° |
| 2026-04-21 22:33 | 55.67911 | -4.24386 | 23466 ft | 391 kts | 167° |
| 2026-04-21 22:33 | 55.65292 | -4.22937 | 23535 ft | 388 kts | 155° |
| 2026-04-21 22:34 | 55.62892 | -4.20752 | 23534 ft | 389 kts | 149° |
| 2026-04-21 22:34 | 55.60533 | -4.18402 | 23530 ft | 387 kts | 149° |
| 2026-04-21 22:34 | 55.58176 | -4.16079 | 23526 ft | 389 kts | 150° |
| 2026-04-21 22:34 | 55.55808 | -4.13765 | 23525 ft | 390 kts | 150° |
| 2026-04-21 22:35 | 55.53431 | -4.11456 | 23525 ft | 390 kts | 150° |
| 2026-04-21 22:35 | 55.51053 | -4.09151 | 23525 ft | 390 kts | 150° |
| 2026-04-21 22:35 | 55.48672 | -4.06842 | 23522 ft | 390 kts | 150° |
| 2026-04-21 22:35 | 55.46301 | -4.04535 | 23522 ft | 388 kts | 149° |
| 2026-04-21 22:36 | 55.41584 | -3.99952 | 23520 ft | 387 kts | 150° |
| 2026-04-21 22:36 | 55.39221 | -3.97666 | 23508 ft | 388 kts | 150° |
| 2026-04-21 22:36 | 55.36854 | -3.95377 | 23507 ft | 389 kts | 150° |
| 2026-04-21 22:37 | 55.34484 | -3.93081 | 23507 ft | 389 kts | 150° |
| 2026-04-21 22:37 | 55.32112 | -3.90787 | 23502 ft | 389 kts | 150° |
| 2026-04-21 22:37 | 55.29736 | -3.88494 | 23498 ft | 389 kts | 150° |
| 2026-04-21 22:37 | 55.27364 | -3.86211 | 23513 ft | 389 kts | 150° |
| 2026-04-21 22:38 | 55.24990 | -3.83936 | 23520 ft | 388 kts | 150° |
| 2026-04-21 22:38 | 55.22624 | -3.81675 | 23529 ft | 387 kts | 150° |
| 2026-04-21 22:38 | 55.20262 | -3.79414 | 23532 ft | 386 kts | 150° |
| 2026-04-21 22:38 | 55.17905 | -3.77160 | 23526 ft | 387 kts | 150° |
| 2026-04-21 22:39 | 55.15541 | -3.74900 | 23515 ft | 387 kts | 150° |
| 2026-04-21 22:39 | 55.13181 | -3.72644 | 23519 ft | 387 kts | 150° |
| 2026-04-21 22:39 | 55.11587 | -3.71122 | 23514 ft | 388 kts | 150° |
| 2026-04-21 22:39 | 55.09215 | -3.68865 | 23502 ft | 388 kts | 151° |
| 2026-04-21 22:40 | 55.06845 | -3.66620 | 23498 ft | 388 kts | 150° |
| 2026-04-21 22:40 | 55.04475 | -3.64375 | 23500 ft | 387 kts | 150° |
| 2026-04-21 22:40 | 55.02106 | -3.62131 | 23505 ft | 387 kts | 150° |
| 2026-04-21 22:40 | 54.99739 | -3.59892 | 23494 ft | 388 kts | 151° |
| 2026-04-21 22:41 | 54.97362 | -3.57653 | 23491 ft | 388 kts | 151° |
| 2026-04-21 22:41 | 54.94986 | -3.55418 | 23488 ft | 389 kts | 151° |
| 2026-04-21 22:41 | 54.92605 | -3.53180 | 23483 ft | 389 kts | 151° |
| 2026-04-21 22:41 | 54.90225 | -3.50936 | 23473 ft | 390 kts | 151° |
| 2026-04-21 22:42 | 54.87840 | -3.48686 | 23473 ft | 390 kts | 151° |
| 2026-04-21 22:42 | 54.85449 | -3.46439 | 23465 ft | 391 kts | 151° |
| 2026-04-21 22:42 | 54.83060 | -3.44193 | 23476 ft | 391 kts | 151° |
| 2026-04-21 22:42 | 54.80665 | -3.41951 | 23474 ft | 391 kts | 151° |
| 2026-04-21 22:43 | 54.78271 | -3.39719 | 23476 ft | 391 kts | 152° |
| 2026-04-21 22:43 | 54.75875 | -3.37489 | 23474 ft | 391 kts | 151° |
| 2026-04-21 22:43 | 54.73476 | -3.35252 | 23475 ft | 392 kts | 151° |
| 2026-04-21 22:43 | 54.71061 | -3.33072 | 23478 ft | 391 kts | 153° |
| 2026-04-21 22:44 | 54.68590 | -3.31073 | 23466 ft | 392 kts | 156° |
| 2026-04-21 22:44 | 54.66086 | -3.29206 | 23463 ft | 393 kts | 157° |
| 2026-04-21 22:44 | 54.63555 | -3.27387 | 23456 ft | 394 kts | 158° |
| 2026-04-21 22:44 | 54.61022 | -3.25577 | 23456 ft | 395 kts | 158° |
| 2026-04-21 22:45 | 54.58487 | -3.23748 | 23447 ft | 395 kts | 157° |
| 2026-04-21 22:45 | 54.55956 | -3.21894 | 23453 ft | 395 kts | 156° |
| 2026-04-21 22:45 | 54.53435 | -3.20024 | 23470 ft | 394 kts | 156° |
| 2026-04-21 22:45 | 54.50918 | -3.18143 | 23473 ft | 394 kts | 156° |
| 2026-04-21 22:46 | 54.48375 | -3.16231 | 23468 ft | 394 kts | 156° |
| 2026-04-21 22:46 | 54.45865 | -3.14348 | 23476 ft | 394 kts | 156° |
| 2026-04-21 22:46 | 54.43349 | -3.12464 | 23470 ft | 394 kts | 156° |
| 2026-04-21 22:46 | 54.40822 | -3.10583 | 23466 ft | 395 kts | 156° |
| 2026-04-21 22:47 | 54.38313 | -3.08728 | 23456 ft | 395 kts | 156° |
| 2026-04-21 22:47 | 54.35788 | -3.06868 | 23457 ft | 395 kts | 156° |
| 2026-04-21 22:47 | 54.33257 | -3.05002 | 23449 ft | 396 kts | 156° |
| 2026-04-21 22:47 | 54.30726 | -3.03137 | 23439 ft | 396 kts | 156° |
| 2026-04-21 22:48 | 54.28198 | -3.01275 | 23446 ft | 396 kts | 156° |
| 2026-04-21 22:48 | 54.25667 | -2.99416 | 23437 ft | 396 kts | 156° |
| 2026-04-21 22:48 | 54.23134 | -2.97560 | 23443 ft | 396 kts | 157° |
| 2026-04-21 22:48 | 54.20596 | -2.95702 | 23434 ft | 397 kts | 157° |
| 2026-04-21 22:49 | 54.18032 | -2.93824 | 23446 ft | 404 kts | 158° |
| 2026-04-21 22:49 | 54.15438 | -2.91930 | 23451 ft | 406 kts | 158° |
| 2026-04-21 22:49 | 54.12835 | -2.90028 | 23452 ft | 407 kts | 158° |
| 2026-04-21 22:49 | 54.10237 | -2.88129 | 23438 ft | 408 kts | 158° |
| 2026-04-21 22:50 | 54.07622 | -2.86223 | 23438 ft | 409 kts | 158° |
| 2026-04-21 22:50 | 54.05008 | -2.84325 | 23445 ft | 408 kts | 158° |
| 2026-04-21 22:50 | 54.02398 | -2.82433 | 23450 ft | 408 kts | 158° |
| 2026-04-21 22:50 | 53.99783 | -2.80537 | 23433 ft | 409 kts | 158° |
| 2026-04-21 22:51 | 53.97163 | -2.78635 | 23431 ft | 410 kts | 158° |
| 2026-04-21 22:51 | 53.94535 | -2.76729 | 23422 ft | 413 kts | 158° |
| 2026-04-21 22:51 | 53.91878 | -2.74803 | 23429 ft | 417 kts | 158° |
| 2026-04-21 22:51 | 53.89223 | -2.72882 | 23162 ft | 412 kts | 158° |
| 2026-04-21 22:52 | 53.86568 | -2.70965 | 22885 ft | 408 kts | 158° |
| 2026-04-21 22:52 | 53.84001 | -2.69121 | 22621 ft | 404 kts | 158° |
| 2026-04-21 22:52 | 53.81388 | -2.67245 | 22340 ft | 401 kts | 158° |
| 2026-04-21 22:52 | 53.78833 | -2.65409 | 22078 ft | 398 kts | 158° |
| 2026-04-21 22:53 | 53.76293 | -2.63587 | 21811 ft | 395 kts | 158° |
| 2026-04-21 22:53 | 53.73763 | -2.61777 | 21548 ft | 394 kts | 158° |
| 2026-04-21 22:53 | 53.71254 | -2.59983 | 21291 ft | 390 kts | 157° |
| 2026-04-21 22:53 | 53.68744 | -2.58299 | 21027 ft | 387 kts | 164° |
| 2026-04-21 22:54 | 53.66126 | -2.57608 | 20627 ft | 381 kts | 180° |
| 2026-04-21 22:54 | 53.63520 | -2.58233 | 20114 ft | 377 kts | 197° |
| 2026-04-21 22:54 | 53.61156 | -2.60101 | 19620 ft | 375 kts | 214° |
| 2026-04-21 22:54 | 53.59221 | -2.62992 | 19128 ft | 373 kts | 230° |
| 2026-04-21 22:55 | 53.57747 | -2.66563 | 18622 ft | 371 kts | 235° |
| 2026-04-21 22:55 | 53.56336 | -2.70182 | 18087 ft | 368 kts | 234° |
| 2026-04-21 22:55 | 53.54931 | -2.73761 | 17598 ft | 365 kts | 235° |
| 2026-04-21 22:55 | 53.53536 | -2.77295 | 17115 ft | 361 kts | 234° |
| 2026-04-21 22:56 | 53.52152 | -2.80799 | 16637 ft | 358 kts | 234° |
| 2026-04-21 22:56 | 53.50776 | -2.84276 | 16159 ft | 356 kts | 234° |
| 2026-04-21 22:56 | 53.49409 | -2.87729 | 15682 ft | 354 kts | 234° |
| 2026-04-21 22:56 | 53.48048 | -2.91162 | 15207 ft | 352 kts | 234° |
| 2026-04-21 22:57 | 53.46674 | -2.94630 | 14740 ft | 351 kts | 234° |
| 2026-04-21 22:57 | 53.45342 | -2.97994 | 14253 ft | 350 kts | 234° |
| 2026-04-21 22:57 | 53.43976 | -3.01433 | 13728 ft | 349 kts | 234° |
| 2026-04-21 22:57 | 53.42635 | -3.04806 | 13243 ft | 347 kts | 234° |
| 2026-04-21 22:58 | 53.41303 | -3.08161 | 12750 ft | 344 kts | 234° |
| 2026-04-21 22:58 | 53.40170 | -3.11687 | 12223 ft | 345 kts | 247° |
| 2026-04-21 22:58 | 53.39551 | -3.15567 | 11705 ft | 346 kts | 261° |
| 2026-04-21 22:58 | 53.39484 | -3.19588 | 11189 ft | 345 kts | 275° |
| 2026-04-21 22:59 | 53.39680 | -3.23581 | 10774 ft | 341 kts | 275° |
| 2026-04-21 22:59 | 53.39866 | -3.27463 | 10654 ft | 328 kts | 275° |
| 2026-04-21 22:59 | 53.40041 | -3.31187 | 10567 ft | 314 kts | 275° |
| 2026-04-21 22:59 | 53.40202 | -3.34774 | 10442 ft | 303 kts | 274° |
| 2026-04-21 23:00 | 53.40355 | -3.38254 | 10134 ft | 300 kts | 274° |
| 2026-04-21 23:00 | 53.40509 | -3.41752 | 9679 ft | 301 kts | 274° |
| 2026-04-21 23:00 | 53.40713 | -3.45228 | 9331 ft | 297 kts | 282° |
| 2026-04-21 23:00 | 53.41609 | -3.48212 | 9136 ft | 282 kts | 316° |
| 2026-04-21 23:01 | 53.43215 | -3.49951 | 8642 ft | 273 kts | 350° |
| 2026-04-21 23:01 | 53.45010 | -3.50050 | 8472 ft | 247 kts | 19° |
| 2026-04-21 23:01 | 53.46484 | -3.48917 | 8293 ft | 224 kts | 44° |
| 2026-04-21 23:01 | 53.47466 | -3.47007 | 7935 ft | 213 kts | 66° |
| 2026-04-21 23:02 | 53.47892 | -3.44689 | 7531 ft | 207 kts | 88° |
| 2026-04-21 23:02 | 53.47758 | -3.42321 | 7135 ft | 204 kts | 108° |
| 2026-04-21 23:02 | 53.47166 | -3.40170 | 6728 ft | 204 kts | 117° |
| 2026-04-21 23:02 | 53.46514 | -3.38072 | 6424 ft | 202 kts | 116° |
| 2026-04-21 23:03 | 53.45869 | -3.35996 | 6125 ft | 199 kts | 116° |
| 2026-04-21 23:03 | 53.45232 | -3.33942 | 5812 ft | 197 kts | 116° |
| 2026-04-21 23:03 | 53.44603 | -3.31913 | 5510 ft | 195 kts | 116° |
| 2026-04-21 23:03 | 53.43983 | -3.29904 | 5214 ft | 193 kts | 116° |
| 2026-04-21 23:04 | 53.43212 | -3.28077 | 4951 ft | 192 kts | 131° |
| 2026-04-21 23:04 | 53.42212 | -3.26660 | 4807 ft | 185 kts | 136° |
| 2026-04-21 23:04 | 53.41229 | -3.25335 | 4683 ft | 177 kts | 136° |
| 2026-04-21 23:04 | 53.40286 | -3.24061 | 4541 ft | 171 kts | 136° |
| 2026-04-21 23:05 | 53.39380 | -3.22836 | 4417 ft | 165 kts | 136° |
| 2026-04-21 23:05 | 53.38501 | -3.21647 | 4246 ft | 161 kts | 135° |
| 2026-04-21 23:05 | 53.37623 | -3.20457 | 4039 ft | 160 kts | 135° |
| 2026-04-21 23:05 | 53.36764 | -3.19297 | 3849 ft | 156 kts | 135° |
| 2026-04-21 23:06 | 53.35945 | -3.18197 | 3733 ft | 146 kts | 135° |
| 2026-04-21 23:06 | 53.35175 | -3.17162 | 3602 ft | 138 kts | 134° |
| 2026-04-21 23:06 | 53.34447 | -3.16181 | 3467 ft | 130 kts | 134° |
| 2026-04-21 23:06 | 53.33754 | -3.15244 | 3289 ft | 127 kts | 133° |
| 2026-04-21 23:07 | 53.33072 | -3.14319 | 3064 ft | 126 kts | 133° |
| 2026-04-21 23:07 | 53.32490 | -3.13269 | 2836 ft | 122 kts | 118° |
| 2026-04-21 23:07 | 53.32199 | -3.11936 | 2564 ft | 124 kts | 93° |
| 2026-04-21 23:07 | 53.32265 | -3.10484 | 2512 ft | 125 kts | 93° |
| 2026-04-21 23:08 | 53.32283 | -3.09025 | 2522 ft | 126 kts | 91° |
| 2026-04-21 23:08 | 53.32327 | -3.07566 | 2488 ft | 126 kts | 89° |
| 2026-04-21 23:08 | 53.32383 | -3.06105 | 2390 ft | 126 kts | 89° |
| 2026-04-21 23:08 | 53.32445 | -3.04647 | 2248 ft | 125 kts | 89° |
| 2026-04-21 23:09 | 53.32511 | -3.03194 | 2097 ft | 125 kts | 88° |
| 2026-04-21 23:09 | 53.32578 | -3.01746 | 1928 ft | 125 kts | 88° |
| 2026-04-21 23:09 | 53.32646 | -3.00299 | 1754 ft | 125 kts | 87° |
| 2026-04-21 23:09 | 53.32714 | -2.98850 | 1581 ft | 125 kts | 86° |
| 2026-04-21 23:10 | 53.32782 | -2.97408 | 1412 ft | 124 kts | 87° |
| 2026-04-21 23:10 | 53.32850 | -2.95970 | 1240 ft | 125 kts | 86° |
| 2026-04-21 23:10 | 53.32918 | -2.94530 | 1067 ft | 124 kts | 86° |
| 2026-04-21 23:10 | 53.32985 | -2.93089 | 876 ft | 124 kts | 86° |
| 2026-04-21 23:11 | 53.33053 | -2.91646 | 713 ft | 124 kts | 84° |
| 2026-04-21 23:11 | 53.33120 | -2.90214 | 548 ft | 123 kts | 85° |
| 2026-04-21 23:11 | 53.33165 | -2.89256 | 431 ft | 123 kts | 84° |
| 2026-04-21 23:11 | 53.33231 | -2.87831 | 263 ft | 123 kts | 84° |
| 2026-04-21 23:12 | 53.33296 | -2.86415 | 98 ft | 121 kts | 84° |
| 2026-04-21 23:12 | 53.33354 | -2.85207 | 83 ft | 74 kts | 85° |
| 2026-04-21 23:12 | 53.33386 | -2.84652 | 71 ft | 38 kts | 73° |
| 2026-04-21 23:12 | 53.33464 | -2.84406 | 82 ft | 17 kts | 60° |
| 2026-04-21 23:13 | 53.33510 | -2.84273 | 82 ft | 10 kts | 56° |
| 2026-04-21 23:13 | 53.33561 | -2.84286 | 74 ft | 11 kts | 277° |
| 2026-04-21 23:13 | 53.33555 | -2.84422 | 73 ft | 12 kts | 265° |
| 2026-04-21 23:13 | 53.33549 | -2.84550 | 80 ft | 10 kts | 265° |
| 2026-04-21 23:14 | 53.33543 | -2.84669 | 80 ft | 11 kts | 265° |
| 2026-04-21 23:14 | 53.33537 | -2.84783 | 87 ft | 9 kts | 265° |
| 2026-04-21 23:14 | 53.33533 | -2.84880 | 85 ft | 8 kts | 266° |
| 2026-04-21 23:14 | 53.33528 | -2.84987 | 85 ft | 10 kts | 265° |
| 2026-04-21 23:15 | 53.33522 | -2.85111 | 86 ft | 11 kts | 265° |
| 2026-04-21 23:15 | 53.33516 | -2.85251 | 84 ft | 13 kts | 265° |
| 2026-04-21 23:15 | 53.33509 | -2.85405 | 86 ft | 12 kts | 266° |
| 2026-04-21 23:15 | 53.33525 | -2.85504 | 85 ft | 8 kts | 336° |
| 2026-04-21 23:16 | 53.33581 | -2.85509 | 85 ft | 6 kts | 356° |
| 2026-04-21 23:16 | 53.33616 | -2.85507 | 87 ft | 6 kts | 359° |
| 2026-04-21 23:16 | 53.33654 | -2.85512 | 86 ft | 3 kts | 355° |
| 2026-04-21 23:16 | 53.33666 | -2.85513 | 87 ft | 0 kts | 356° |